createdAt,value
2017-11-26T00:01:01.786Z,73.40
2017-11-26T00:03:30.385Z,73.40
2017-11-26T00:05:58.612Z,73.70
2017-11-26T00:08:26.084Z,73.50
2017-11-26T00:10:53.587Z,73.40
2017-11-26T00:13:21.792Z,73.70
2017-11-26T00:15:49.303Z,73.70
2017-11-26T00:18:17.772Z,73.20
2017-11-26T00:20:45.236Z,73.10
2017-11-26T00:23:13.463Z,73.00
2017-11-26T00:25:41.011Z,72.90
2017-11-26T00:28:08.477Z,73.20
2017-11-26T00:30:35.970Z,73.20
2017-11-26T00:33:03.406Z,73.20
2017-11-26T00:35:31.350Z,73.10
2017-11-26T00:37:58.800Z,73.20
2017-11-26T00:40:26.266Z,73.20
2017-11-26T00:42:54.210Z,73.30
2017-11-26T00:45:21.656Z,73.40
2017-11-26T00:47:50.125Z,73.00
2017-11-26T00:50:18.334Z,73.10
2017-11-26T00:52:45.972Z,73.00
2017-11-26T00:55:14.792Z,72.90
2017-11-26T00:57:42.355Z,72.90
2017-11-26T01:00:09.909Z,73.00
2017-11-26T01:02:37.710Z,73.20
2017-11-26T01:05:05.192Z,73.30
2017-11-26T01:07:33.449Z,73.40
2017-11-26T01:10:00.940Z,73.40
2017-11-26T01:12:28.869Z,73.30
2017-11-26T01:14:57.842Z,73.20
2017-11-26T01:17:25.380Z,73.20
2017-11-26T01:19:52.969Z,73.30
2017-11-26T01:22:26.265Z,73.60
2017-11-26T01:24:53.736Z,73.30
2017-11-26T01:27:21.496Z,73.50
2017-11-26T01:29:48.952Z,73.50
2017-11-26T01:32:17.103Z,73.60
2017-11-26T01:34:44.565Z,73.70
2017-11-26T01:37:12.040Z,73.60
2017-11-26T01:39:39.501Z,73.50
2017-11-26T01:42:07.758Z,74.10
2017-11-26T01:44:35.870Z,73.60
2017-11-26T01:47:05.025Z,73.90
2017-11-26T01:49:32.686Z,73.90
2017-11-26T01:52:00.147Z,74.10
2017-11-26T01:54:28.498Z,74.10
2017-11-26T01:56:56.009Z,74.20
2017-11-26T01:59:24.243Z,74.20
2017-11-26T02:01:51.715Z,74.10
2017-11-26T02:04:19.591Z,74.30
2017-11-26T02:06:47.103Z,74.40
2017-11-26T02:09:14.577Z,74.70
2017-11-26T02:11:42.137Z,74.80
2017-11-26T02:14:09.652Z,74.90
2017-11-26T02:16:37.198Z,74.90
2017-11-26T02:19:04.695Z,74.80
2017-11-26T02:21:32.456Z,75.00
2017-11-26T02:24:00.012Z,75.00
2017-11-26T02:26:27.574Z,75.00
2017-11-26T02:28:55.437Z,74.90
2017-11-26T02:31:34.746Z,74.70
2017-11-26T02:34:14.213Z,74.60
2017-11-26T02:36:41.916Z,74.70
2017-11-26T02:39:09.366Z,74.90
2017-11-26T02:41:37.350Z,75.20
2017-11-26T02:44:05.193Z,75.10
2017-11-26T02:46:32.651Z,75.00
2017-11-26T02:49:00.145Z,75.30
2017-11-26T02:51:28.450Z,75.00
2017-11-26T02:53:55.890Z,74.90
2017-11-26T02:56:23.431Z,74.40
2017-11-26T02:58:50.873Z,74.20
2017-11-26T03:01:20.091Z,74.40
2017-11-26T03:03:48.939Z,73.90
2017-11-26T03:06:16.388Z,73.90
2017-11-26T03:08:43.930Z,73.90
2017-11-26T03:11:11.564Z,74.00
2017-11-26T03:13:40.211Z,74.30
2017-11-26T03:16:07.652Z,74.30
2017-11-26T03:18:36.070Z,74.40
2017-11-26T03:21:04.308Z,75.40
2017-11-26T03:23:31.864Z,74.60
2017-11-26T03:25:59.987Z,74.60
2017-11-26T03:28:28.190Z,74.90
2017-11-26T03:30:55.702Z,74.90
2017-11-26T03:33:23.905Z,75.40
2017-11-26T03:35:51.817Z,75.40
2017-11-26T03:38:20.243Z,75.60
2017-11-26T03:40:48.460Z,75.80
2017-11-26T03:43:16.558Z,75.70
2017-11-26T03:45:44.062Z,76.00
2017-11-26T03:48:11.502Z,76.20
2017-11-26T03:50:39.073Z,76.20
2017-11-26T03:53:06.650Z,76.20
2017-11-26T03:55:34.226Z,76.20
2017-11-26T03:58:01.665Z,76.20
2017-11-26T04:00:29.451Z,76.10
2017-11-26T04:02:57.584Z,76.00
2017-11-26T04:05:25.243Z,75.80
2017-11-26T04:07:52.703Z,75.70
2017-11-26T04:10:20.264Z,75.80
2017-11-26T04:12:47.743Z,75.70
2017-11-26T04:15:15.314Z,75.80
2017-11-26T04:17:43.817Z,75.90
2017-11-26T04:20:12.911Z,76.60
2017-11-26T04:22:40.965Z,75.90
2017-11-26T04:25:09.014Z,76.10
2017-11-26T04:27:36.447Z,76.30
2017-11-26T04:30:05.085Z,76.30
2017-11-26T04:32:32.592Z,76.30
2017-11-26T04:35:00.160Z,76.10
2017-11-26T04:37:27.694Z,76.20
2017-11-26T04:39:55.295Z,76.10
2017-11-26T04:42:22.823Z,76.60
2017-11-26T04:44:50.822Z,75.80
2017-11-26T04:47:18.262Z,75.80
2017-11-26T04:49:45.736Z,75.70
2017-11-26T04:52:13.253Z,75.90
2017-11-26T04:54:41.483Z,75.90
2017-11-26T04:57:10.429Z,75.90
2017-11-26T04:59:38.051Z,75.80
2017-11-26T05:02:06.673Z,75.90
2017-11-26T05:04:34.466Z,75.90
2017-11-26T05:07:01.917Z,75.70
2017-11-26T05:09:29.363Z,75.60
2017-11-26T05:11:56.831Z,75.40
2017-11-26T05:14:24.291Z,75.30
2017-11-26T05:16:51.782Z,75.20
2017-11-26T05:19:20.538Z,75.10
2017-11-26T05:21:48.472Z,75.10
2017-11-26T05:24:15.924Z,75.10
2017-11-26T05:26:43.519Z,75.20
2017-11-26T05:29:11.029Z,75.20
2017-11-26T05:31:38.551Z,75.20
2017-11-26T05:34:05.994Z,75.20
2017-11-26T05:36:33.653Z,75.20
2017-11-26T05:39:01.180Z,75.30
2017-11-26T05:41:29.282Z,75.40
2017-11-26T05:43:57.258Z,75.40
2017-11-26T05:46:24.703Z,75.30
2017-11-26T05:48:52.159Z,75.40
2017-11-26T05:51:19.703Z,75.40
2017-11-26T05:53:47.351Z,75.50
2017-11-26T05:56:14.926Z,75.50
2017-11-26T05:58:42.392Z,75.40
2017-11-26T06:01:09.875Z,75.50
2017-11-26T06:03:37.825Z,75.60
2017-11-26T06:06:05.279Z,76.00
2017-11-26T06:08:34.033Z,75.70
2017-11-26T06:11:01.542Z,75.50
2017-11-26T06:13:28.987Z,75.40
2017-11-26T06:15:56.611Z,75.50
2017-11-26T06:18:24.681Z,75.30
2017-11-26T06:20:52.131Z,75.40
2017-11-26T06:23:19.591Z,75.50
2017-11-26T06:25:47.057Z,75.40
2017-11-26T06:28:14.504Z,75.40
2017-11-26T06:30:41.969Z,75.40
2017-11-26T06:33:09.520Z,75.40
2017-11-26T06:35:37.125Z,75.30
2017-11-26T06:38:04.626Z,75.30
2017-11-26T06:40:32.069Z,75.20
2017-11-26T06:43:00.919Z,75.00
2017-11-26T06:45:28.563Z,75.00
2017-11-26T06:47:56.538Z,75.10
2017-11-26T06:50:23.993Z,75.00
2017-11-26T06:52:51.503Z,74.80
2017-11-26T06:55:18.988Z,75.00
2017-11-26T06:57:46.446Z,74.70
2017-11-26T07:00:13.952Z,74.80
2017-11-26T07:02:42.734Z,74.90
2017-11-26T07:05:10.597Z,74.90
2017-11-26T07:07:38.039Z,75.10
2017-11-26T07:10:05.506Z,75.10
2017-11-26T07:12:33.012Z,75.00
2017-11-26T07:15:00.792Z,75.20
2017-11-26T07:17:28.723Z,75.00
2017-11-26T07:19:56.952Z,75.10
2017-11-26T07:22:24.410Z,75.00
2017-11-26T07:24:51.968Z,74.90
2017-11-26T07:27:19.460Z,74.90
2017-11-26T07:29:47.659Z,74.90
2017-11-26T07:32:15.126Z,75.00
2017-11-26T07:34:42.928Z,75.10
2017-11-26T07:37:10.426Z,75.00
2017-11-26T07:39:37.894Z,75.90
2017-11-26T07:42:07.004Z,75.00
2017-11-26T07:44:35.719Z,75.00
2017-11-26T07:47:03.379Z,74.90
2017-11-26T07:49:30.822Z,75.20
2017-11-26T07:51:59.284Z,74.90
2017-11-26T07:54:26.878Z,75.10
2017-11-26T07:56:54.412Z,74.90
2017-11-26T07:59:21.875Z,75.20
2017-11-26T08:01:49.328Z,75.20
2017-11-26T08:04:17.418Z,75.20
2017-11-26T08:06:44.870Z,75.20
2017-11-26T08:09:12.440Z,75.20
2017-11-26T08:11:40.435Z,75.60
2017-11-26T08:14:09.319Z,75.00
2017-11-26T08:16:37.600Z,75.00
2017-11-26T08:19:05.814Z,74.90
2017-11-26T08:21:33.353Z,74.80
2017-11-26T08:24:01.044Z,74.80
2017-11-26T08:26:28.639Z,74.80
2017-11-26T08:28:56.128Z,74.80
2017-11-26T08:31:24.476Z,74.80
2017-11-26T08:33:52.699Z,74.40
2017-11-26T08:36:20.184Z,74.40
2017-11-26T08:38:47.631Z,74.50
2017-11-26T08:41:15.482Z,74.30
2017-11-26T08:43:43.445Z,74.20
2017-11-26T08:46:10.888Z,74.40
2017-11-26T08:48:38.462Z,74.30
2017-11-26T08:51:05.921Z,74.60
2017-11-26T08:53:33.772Z,74.20
2017-11-26T08:56:01.206Z,74.30
2017-11-26T08:58:29.439Z,74.60
2017-11-26T09:00:56.945Z,74.60
2017-11-26T09:03:25.993Z,74.40
2017-11-26T09:05:53.463Z,74.40
2017-11-26T09:08:26.038Z,74.70
2017-11-26T09:10:54.014Z,74.80
2017-11-26T09:13:22.367Z,74.80
2017-11-26T09:15:49.998Z,74.50
2017-11-26T09:18:17.775Z,74.30
2017-11-26T09:20:45.216Z,74.20
2017-11-26T09:23:12.747Z,74.10
2017-11-26T09:25:41.126Z,74.30
2017-11-26T09:28:09.767Z,74.30
2017-11-26T09:30:37.223Z,74.20
2017-11-26T09:33:05.186Z,74.10
2017-11-26T09:35:33.730Z,74.30
2017-11-26T09:38:01.943Z,74.40
2017-11-26T09:40:29.446Z,74.90
2017-11-26T09:42:57.800Z,74.30
2017-11-26T09:45:25.525Z,74.30
2017-11-26T09:47:53.832Z,73.90
2017-11-26T09:50:21.777Z,74.20
2017-11-26T09:52:50.453Z,74.00
2017-11-26T09:55:18.017Z,73.90
2017-11-26T09:57:45.570Z,74.10
2017-11-26T10:00:13.285Z,74.20
2017-11-26T10:02:41.525Z,73.90
2017-11-26T10:05:09.440Z,73.90
2017-11-26T10:07:38.690Z,74.20
2017-11-26T10:10:06.231Z,74.10
2017-11-26T10:12:33.699Z,74.30
2017-11-26T10:15:01.356Z,74.20
2017-11-26T10:17:29.696Z,73.90
2017-11-26T10:19:57.505Z,74.00
2017-11-26T10:22:25.863Z,73.70
2017-11-26T10:24:53.705Z,73.90
2017-11-26T10:27:22.220Z,74.30
2017-11-26T10:29:49.927Z,74.30
2017-11-26T10:32:18.256Z,74.20
2017-11-26T10:34:46.312Z,74.40
2017-11-26T10:37:13.886Z,74.00
2017-11-26T10:39:41.653Z,74.20
2017-11-26T10:42:09.108Z,74.80
2017-11-26T10:44:37.342Z,74.40
2017-11-26T10:47:05.719Z,74.10
2017-11-26T10:49:33.957Z,73.70
2017-11-26T10:52:01.426Z,73.60
2017-11-26T10:54:29.355Z,73.70
2017-11-26T10:57:02.809Z,73.10
2017-11-26T10:59:30.730Z,73.50
2017-11-26T11:01:58.216Z,73.70
2017-11-26T11:04:27.561Z,73.50
2017-11-26T11:06:55.187Z,73.60
2017-11-26T11:09:22.689Z,73.20
2017-11-26T11:11:50.470Z,73.30
2017-11-26T11:14:17.952Z,73.30
2017-11-26T11:16:45.586Z,73.20
2017-11-26T11:19:13.414Z,73.40
2017-11-26T11:21:41.884Z,73.40
2017-11-26T11:24:09.339Z,73.40
2017-11-26T11:26:37.556Z,73.20
2017-11-26T11:29:05.029Z,73.20
2017-11-26T11:31:32.568Z,73.60
2017-11-26T11:34:00.183Z,73.80
2017-11-26T11:36:28.537Z,74.40
2017-11-26T11:38:56.091Z,74.30
2017-11-26T11:41:23.532Z,74.40
2017-11-26T11:43:51.581Z,74.40
2017-11-26T11:46:19.908Z,73.90
2017-11-26T11:48:47.385Z,74.60
2017-11-26T11:51:15.608Z,73.90
2017-11-26T11:53:43.268Z,73.90
2017-11-26T11:56:10.753Z,74.00
2017-11-26T11:58:38.286Z,73.80
2017-11-26T12:01:05.733Z,73.90
2017-11-26T12:03:33.662Z,74.20
2017-11-26T12:06:01.511Z,73.80
2017-11-26T12:08:28.951Z,73.90
2017-11-26T12:10:56.401Z,73.70
2017-11-26T12:13:24.013Z,73.30
2017-11-26T12:15:52.264Z,72.80
2017-11-26T12:18:19.836Z,72.80
2017-11-26T12:20:48.063Z,72.70
2017-11-26T12:23:15.533Z,72.70
2017-11-26T12:25:42.986Z,72.70
2017-11-26T12:28:10.501Z,72.30
2017-11-26T12:30:38.802Z,72.30
2017-11-26T12:33:06.334Z,72.30
2017-11-26T12:35:33.782Z,73.10
2017-11-26T12:38:01.998Z,72.20
2017-11-26T12:40:29.674Z,72.10
2017-11-26T12:42:57.847Z,71.90
2017-11-26T12:45:25.338Z,72.00
2017-11-26T12:47:52.796Z,72.10
2017-11-26T12:50:21.531Z,72.00
2017-11-26T12:52:48.999Z,72.00
2017-11-26T12:55:16.547Z,72.30
2017-11-26T12:57:43.969Z,71.90
2017-11-26T13:00:11.903Z,71.50
2017-11-26T13:02:39.336Z,71.20
2017-11-26T13:05:07.494Z,70.50
2017-11-26T13:07:34.975Z,71.20
2017-11-26T13:10:02.442Z,71.10
2017-11-26T13:12:29.901Z,71.10
2017-11-26T13:14:57.521Z,71.20
2017-11-26T13:17:25.072Z,71.00
2017-11-26T13:19:52.545Z,70.50
2017-11-26T13:22:20.922Z,71.10
2017-11-26T13:24:48.383Z,71.00
2017-11-26T13:27:15.943Z,71.60
2017-11-26T13:29:43.379Z,71.50
2017-11-26T13:32:10.848Z,71.20
2017-11-26T13:34:38.516Z,71.40
2017-11-26T13:37:05.983Z,72.30
2017-11-26T13:39:33.476Z,72.00
2017-11-26T13:42:01.114Z,72.50
2017-11-26T13:44:28.891Z,73.10
2017-11-26T13:46:56.435Z,73.00
2017-11-26T13:49:24.420Z,73.20
2017-11-26T13:51:51.898Z,73.50
2017-11-26T13:54:20.176Z,73.90
2017-11-26T13:56:48.416Z,74.50
2017-11-26T13:59:16.397Z,74.50
2017-11-26T14:01:43.838Z,74.80
2017-11-26T14:04:11.300Z,74.70
2017-11-26T14:06:39.344Z,74.20
2017-11-26T14:09:06.807Z,74.40
2017-11-26T14:11:34.271Z,75.00
2017-11-26T14:14:01.741Z,76.00
2017-11-26T14:16:29.273Z,76.50
2017-11-26T14:18:56.851Z,76.10
2017-11-26T14:21:24.294Z,76.30
2017-11-26T14:23:52.347Z,75.90
2017-11-26T14:26:19.950Z,75.90
2017-11-26T14:28:47.408Z,76.60
2017-11-26T14:31:14.950Z,76.20
2017-11-26T14:33:42.594Z,76.00
2017-11-26T14:36:10.142Z,75.30
2017-11-26T14:38:37.608Z,74.70
2017-11-26T14:41:05.057Z,75.00
2017-11-26T14:43:32.792Z,75.50
2017-11-26T14:46:01.194Z,75.40
2017-11-26T14:48:28.655Z,75.50
2017-11-26T14:50:56.155Z,75.60
2017-11-26T14:53:23.631Z,75.80
2017-11-26T14:55:52.746Z,75.20
2017-11-26T14:58:20.254Z,75.20
2017-11-26T15:00:47.710Z,75.80
2017-11-26T15:03:15.163Z,75.50
2017-11-26T15:05:43.143Z,75.40
2017-11-26T15:08:10.593Z,75.40
2017-11-26T15:10:38.836Z,75.80
2017-11-26T15:13:06.737Z,75.70
2017-11-26T15:15:34.222Z,75.80
2017-11-26T15:18:02.490Z,75.50
2017-11-26T15:20:29.940Z,75.50
2017-11-26T15:22:58.162Z,75.50
2017-11-26T15:25:25.736Z,75.50
2017-11-26T15:27:53.226Z,75.70
2017-11-26T15:30:20.780Z,75.90
2017-11-26T15:32:48.613Z,76.00
2017-11-26T15:35:16.663Z,76.20
2017-11-26T15:37:44.104Z,76.30
2017-11-26T15:40:11.717Z,76.30
2017-11-26T15:42:39.892Z,76.10
2017-11-26T15:45:07.416Z,76.10
2017-11-26T15:47:34.858Z,76.10
2017-11-26T15:50:02.351Z,76.20
2017-11-26T15:52:30.303Z,76.00
2017-11-26T15:54:57.806Z,76.20
2017-11-26T15:57:25.445Z,76.10
2017-11-26T15:59:52.904Z,76.20
2017-11-26T16:02:20.380Z,76.20
2017-11-26T16:04:47.842Z,76.80
2017-11-26T16:07:15.679Z,76.10
2017-11-26T16:09:43.213Z,75.60
2017-11-26T16:12:12.715Z,75.40
2017-11-26T16:14:40.245Z,75.40
2017-11-26T16:17:08.457Z,75.40
2017-11-26T16:19:35.969Z,75.40
2017-11-26T16:22:04.288Z,75.70
2017-11-26T16:24:31.770Z,75.70
2017-11-26T16:26:59.209Z,75.90
2017-11-26T16:29:26.883Z,76.00
2017-11-26T16:31:54.366Z,76.20
2017-11-26T16:34:21.889Z,76.00
2017-11-26T16:36:49.399Z,76.00
2017-11-26T16:39:17.119Z,76.00
2017-11-26T16:41:45.159Z,75.90
2017-11-26T16:44:13.127Z,75.70
2017-11-26T16:46:40.678Z,75.50
2017-11-26T16:49:08.179Z,75.40
2017-11-26T16:51:36.280Z,75.50
2017-11-26T16:54:03.722Z,75.50
2017-11-26T16:56:31.330Z,74.90
2017-11-26T16:58:58.893Z,75.30
2017-11-26T17:01:26.327Z,75.20
2017-11-26T17:03:53.812Z,75.10
2017-11-26T17:06:21.708Z,75.00
2017-11-26T17:08:49.257Z,75.10
2017-11-26T17:11:17.153Z,75.30
2017-11-26T17:13:45.413Z,75.10
2017-11-26T17:16:12.927Z,75.00
2017-11-26T17:18:40.514Z,74.90
2017-11-26T17:21:08.208Z,75.00
2017-11-26T17:23:36.473Z,75.00
2017-11-26T17:26:04.034Z,75.00
2017-11-26T17:28:31.576Z,75.10
2017-11-26T17:30:59.024Z,75.20
2017-11-26T17:33:26.603Z,75.40
2017-11-26T17:35:54.591Z,75.50
2017-11-26T17:38:22.803Z,75.70
2017-11-26T17:40:50.397Z,75.40
2017-11-26T17:43:19.076Z,75.60
2017-11-26T17:45:46.705Z,75.60
2017-11-26T17:48:14.555Z,75.60
2017-11-26T17:50:42.055Z,75.60
2017-11-26T17:53:09.519Z,75.70
2017-11-26T17:55:37.214Z,75.80
2017-11-26T17:58:05.732Z,76.60
2017-11-26T18:00:33.396Z,76.00
2017-11-26T18:03:00.979Z,76.20
2017-11-26T18:05:28.572Z,76.30
2017-11-26T18:07:57.233Z,76.30
2017-11-26T18:10:24.810Z,76.30
2017-11-26T18:12:52.311Z,76.40
2017-11-26T18:15:19.802Z,76.10
2017-11-26T18:17:47.258Z,76.20
2017-11-26T18:20:14.751Z,76.20
2017-11-26T18:22:43.166Z,76.10
2017-11-26T18:25:10.737Z,76.10
2017-11-26T18:27:38.713Z,76.20
2017-11-26T18:30:06.292Z,76.20
2017-11-26T18:32:33.807Z,76.40
2017-11-26T18:35:01.372Z,76.50
2017-11-26T18:37:29.458Z,76.70
2017-11-26T18:39:57.190Z,76.70
2017-11-26T18:42:24.892Z,76.80
2017-11-26T18:44:53.554Z,76.70
2017-11-26T18:47:21.032Z,76.80
2017-11-26T18:49:48.475Z,77.40
2017-11-26T18:52:16.115Z,76.80
2017-11-26T18:54:43.805Z,76.80
2017-11-26T18:57:11.340Z,76.80
2017-11-26T18:59:38.918Z,76.70
2017-11-26T19:02:06.431Z,76.70
2017-11-26T19:04:34.122Z,77.00
2017-11-26T19:07:02.255Z,77.20
2017-11-26T19:09:30.547Z,77.80
2017-11-26T19:11:58.826Z,78.00
2017-11-26T19:14:26.412Z,77.90
2017-11-26T19:16:53.888Z,78.10
2017-11-26T19:19:21.902Z,78.30
2017-11-26T19:21:50.670Z,78.60
2017-11-26T19:24:18.990Z,78.60
2017-11-26T19:26:46.679Z,78.50
2017-11-26T19:29:14.166Z,78.50
2017-11-26T19:31:41.631Z,78.60
2017-11-26T19:34:09.921Z,78.50
2017-11-26T19:36:37.483Z,78.40
2017-11-26T19:39:05.247Z,78.20
2017-11-26T19:41:32.722Z,78.20
2017-11-26T19:44:00.894Z,78.00
2017-11-26T19:46:28.452Z,77.70
2017-11-26T19:48:56.085Z,77.70
2017-11-26T19:51:23.554Z,77.30
2017-11-26T19:53:51.456Z,77.30
2017-11-26T19:56:19.120Z,77.30
2017-11-26T19:58:47.586Z,77.40
2017-11-26T20:01:15.083Z,77.20
2017-11-26T20:03:42.813Z,77.30
2017-11-26T20:06:10.388Z,77.10
2017-11-26T20:08:38.206Z,77.10
2017-11-26T20:11:05.652Z,77.20
2017-11-26T20:13:33.346Z,77.20
2017-11-26T20:16:01.044Z,77.20
2017-11-26T20:18:28.619Z,77.00
2017-11-26T20:20:56.862Z,76.60
2017-11-26T20:23:24.327Z,76.60
2017-11-26T20:25:52.205Z,76.60
2017-11-26T20:28:19.677Z,76.50
2017-11-26T20:30:48.129Z,76.50
2017-11-26T20:33:15.611Z,76.40
2017-11-26T20:35:43.194Z,76.40
2017-11-26T20:38:10.710Z,76.90
2017-11-26T20:40:38.890Z,76.40
2017-11-26T20:43:07.027Z,76.60
2017-11-26T20:45:34.502Z,76.60
2017-11-26T20:48:02.236Z,76.60
2017-11-26T20:50:29.804Z,76.50
2017-11-26T20:52:57.283Z,76.70
2017-11-26T20:55:25.122Z,77.10
2017-11-26T20:57:52.727Z,77.20
2017-11-26T21:00:20.846Z,77.20
2017-11-26T21:02:48.402Z,77.00
2017-11-26T21:05:16.054Z,76.90
2017-11-26T21:07:44.023Z,76.80
2017-11-26T21:10:12.533Z,76.40
2017-11-26T21:12:40.072Z,76.40
2017-11-26T21:15:07.644Z,76.60
2017-11-26T21:17:35.098Z,76.40
2017-11-26T21:20:03.540Z,76.40
2017-11-26T21:22:31.035Z,76.70
2017-11-26T21:24:58.900Z,76.40
2017-11-26T21:27:26.457Z,76.50
2017-11-26T21:29:53.938Z,76.70
2017-11-26T21:32:21.490Z,76.70
2017-11-26T21:34:48.997Z,76.60
2017-11-26T21:37:16.848Z,76.70
2017-11-26T21:39:45.092Z,77.00
2017-11-26T21:42:12.587Z,77.00
2017-11-26T21:44:41.533Z,77.30
2017-11-26T21:47:09.617Z,77.30
2017-11-26T21:49:37.063Z,77.30
2017-11-26T21:52:04.616Z,77.10
2017-11-26T21:54:32.136Z,77.10
2017-11-26T21:57:00.571Z,77.30
2017-11-26T21:59:28.090Z,77.20
2017-11-26T22:01:55.648Z,77.00
2017-11-26T22:04:23.364Z,76.90
2017-11-26T22:06:51.790Z,77.00
2017-11-26T22:09:19.651Z,76.60
2017-11-26T22:11:49.611Z,76.70
2017-11-26T22:14:18.756Z,76.60
2017-11-26T22:16:48.788Z,76.50
2017-11-26T22:19:17.783Z,76.30
2017-11-26T22:21:47.401Z,76.10
2017-11-26T22:24:18.397Z,76.30
2017-11-26T22:26:47.833Z,76.30
2017-11-26T22:29:17.913Z,76.10
2017-11-26T22:31:47.079Z,76.00
2017-11-26T22:34:15.342Z,76.00
2017-11-26T22:36:42.919Z,76.00
2017-11-26T22:39:10.949Z,75.70
2017-11-26T22:41:38.410Z,75.90
2017-11-26T22:44:06.326Z,75.90
2017-11-26T22:46:34.778Z,75.80
2017-11-26T22:49:02.410Z,75.70
2017-11-26T22:51:29.992Z,75.70
2017-11-26T22:53:57.495Z,75.80
2017-11-26T22:56:26.794Z,75.80
2017-11-26T22:58:54.327Z,75.70
2017-11-26T23:01:21.809Z,76.00
2017-11-26T23:03:50.054Z,76.50
2017-11-26T23:06:18.350Z,76.80
2017-11-26T23:08:47.528Z,76.60
2017-11-26T23:11:15.014Z,76.60
2017-11-26T23:13:43.435Z,76.80
2017-11-26T23:16:11.164Z,76.80
2017-11-26T23:18:39.742Z,76.50
2017-11-26T23:21:07.973Z,76.20
2017-11-26T23:23:35.420Z,76.20
2017-11-26T23:26:03.132Z,76.10
2017-11-26T23:28:31.644Z,76.40
2017-11-26T23:30:59.264Z,76.30
2017-11-26T23:33:27.482Z,76.90
2017-11-26T23:35:54.988Z,76.10
2017-11-26T23:38:22.414Z,76.00
2017-11-26T23:40:50.358Z,76.00
2017-11-26T23:43:18.530Z,76.00
2017-11-26T23:45:46.805Z,76.10
2017-11-26T23:48:14.305Z,76.10
2017-11-26T23:50:42.449Z,76.00
2017-11-26T23:53:09.899Z,76.20
2017-11-26T23:55:37.443Z,76.10
2017-11-26T23:58:04.891Z,76.00
